createdAt,value
2022-12-29T00:01:34.765Z,93.37
2022-12-29T00:02:34.837Z,93.55
2022-12-29T00:04:38.724Z,93.08
2022-12-29T00:05:38.726Z,92.70
2022-12-29T00:07:42.701Z,92.80
2022-12-29T00:08:42.757Z,92.89
2022-12-29T00:09:42.676Z,93.18
2022-12-29T00:10:42.668Z,92.80
2022-12-29T00:11:42.668Z,92.70
2022-12-29T00:12:42.650Z,92.89
2022-12-29T00:13:42.656Z,92.99
2022-12-29T00:14:42.652Z,92.80
2022-12-29T00:15:42.702Z,92.70
2022-12-29T00:16:42.629Z,92.99
2022-12-29T00:17:42.619Z,92.22
2022-12-29T00:18:42.620Z,92.70
2022-12-29T00:19:42.604Z,92.41
2022-12-29T00:20:42.605Z,92.22
2022-12-29T00:21:42.599Z,92.61
2022-12-29T00:22:42.591Z,92.03
2022-12-29T00:23:42.696Z,92.41
2022-12-29T00:24:42.588Z,92.70
2022-12-29T00:25:42.589Z,91.94
2022-12-29T00:26:42.578Z,92.13
2022-12-29T00:27:42.573Z,92.41
2022-12-29T00:28:42.553Z,92.22
2022-12-29T00:29:42.543Z,92.03
2022-12-29T00:30:42.565Z,91.94
2022-12-29T00:31:42.573Z,91.94
2022-12-29T00:32:42.536Z,91.47
2022-12-29T00:33:42.547Z,91.85
2022-12-29T00:34:42.518Z,91.37
2022-12-29T00:35:42.508Z,91.56
2022-12-29T00:36:42.506Z,91.94
2022-12-29T00:37:42.535Z,91.18
2022-12-29T00:38:42.488Z,91.28
2022-12-29T00:39:42.485Z,91.37
2022-12-29T00:40:42.495Z,91.18
2022-12-29T00:41:42.485Z,91.66
2022-12-29T00:42:42.470Z,91.37
2022-12-29T00:43:42.461Z,91.66
2022-12-29T00:44:42.462Z,91.28
2022-12-29T00:45:42.463Z,91.37
2022-12-29T00:46:42.457Z,91.66
2022-12-29T00:47:42.451Z,91.28
2022-12-29T00:48:42.452Z,91.47
2022-12-29T00:49:42.417Z,91.75
2022-12-29T00:50:42.432Z,91.08
2022-12-29T00:51:42.430Z,91.85
2022-12-29T00:52:42.400Z,91.75
2022-12-29T00:53:42.401Z,91.47
2022-12-29T00:54:42.400Z,91.75
2022-12-29T00:55:42.385Z,91.66
2022-12-29T00:56:42.394Z,91.75
2022-12-29T00:57:42.411Z,91.75
2022-12-29T00:58:42.373Z,91.75
2022-12-29T00:59:42.368Z,91.85
2022-12-29T01:00:42.416Z,91.56
2022-12-29T01:01:42.461Z,91.66
2022-12-29T01:02:42.502Z,91.47
2022-12-29T01:03:42.332Z,91.37
2022-12-29T01:04:42.331Z,91.37
2022-12-29T01:05:42.331Z,91.56
2022-12-29T01:06:42.327Z,91.28
2022-12-29T01:07:42.331Z,91.37
2022-12-29T01:08:42.311Z,91.75
2022-12-29T01:09:42.313Z,91.56
2022-12-29T01:10:42.297Z,91.37
2022-12-29T01:11:42.310Z,91.85
2022-12-29T01:12:42.364Z,91.75
2022-12-29T01:13:42.313Z,91.66
2022-12-29T01:14:42.284Z,91.66
2022-12-29T01:15:42.279Z,91.85
2022-12-29T01:16:42.284Z,92.03
2022-12-29T01:17:42.248Z,91.56
2022-12-29T01:18:42.273Z,91.56
2022-12-29T01:19:42.246Z,91.66
2022-12-29T01:20:42.250Z,91.75
2022-12-29T01:21:42.231Z,91.56
2022-12-29T01:22:42.227Z,91.66
2022-12-29T01:23:42.226Z,91.94
2022-12-29T01:24:42.209Z,91.85
2022-12-29T01:25:42.205Z,91.56
2022-12-29T01:26:42.206Z,91.56
2022-12-29T01:27:42.200Z,91.75
2022-12-29T01:28:42.213Z,91.28
2022-12-29T01:29:42.218Z,91.56
2022-12-29T01:30:42.181Z,91.56
2022-12-29T01:31:42.224Z,91.66
2022-12-29T01:32:42.172Z,91.75
2022-12-29T01:33:42.154Z,91.28
2022-12-29T01:34:42.156Z,91.56
2022-12-29T01:35:42.142Z,91.66
2022-12-29T01:36:42.144Z,91.66
2022-12-29T01:37:42.133Z,91.66
2022-12-29T01:38:42.125Z,91.61
2022-12-29T01:39:42.115Z,91.37
2022-12-29T01:40:42.118Z,91.66
2022-12-29T01:41:42.116Z,91.89
2022-12-29T01:42:42.154Z,91.42
2022-12-29T01:43:42.096Z,91.70
2022-12-29T01:44:42.090Z,91.75
2022-12-29T01:45:42.145Z,91.66
2022-12-29T01:46:42.087Z,91.28
2022-12-29T01:47:42.074Z,91.56
2022-12-29T01:48:42.064Z,91.99
2022-12-29T01:49:42.058Z,92.13
2022-12-29T01:50:42.072Z,92.32
2022-12-29T01:51:42.048Z,92.08
2022-12-29T01:52:42.056Z,92.08
2022-12-29T01:53:42.043Z,92.08
2022-12-29T01:54:42.030Z,92.46
2022-12-29T01:55:42.025Z,92.46
2022-12-29T01:56:42.019Z,92.36
2022-12-29T01:57:42.029Z,92.36
2022-12-29T01:58:42.012Z,92.41
2022-12-29T01:59:42.013Z,92.41
2022-12-29T02:00:42.014Z,92.89
2022-12-29T02:01:42.061Z,92.89
2022-12-29T02:02:42.295Z,92.89
2022-12-29T02:03:42.045Z,93.18
2022-12-29T02:04:41.987Z,92.99
2022-12-29T02:05:41.958Z,92.80
2022-12-29T02:06:41.955Z,92.70
2022-12-29T02:07:41.956Z,93.37
2022-12-29T02:08:41.952Z,93.27
2022-12-29T02:09:41.939Z,93.18
2022-12-29T02:10:41.954Z,93.08
2022-12-29T02:11:41.966Z,93.37
2022-12-29T02:12:41.912Z,92.99
2022-12-29T02:13:41.909Z,93.32
2022-12-29T02:14:41.908Z,92.80
2022-12-29T02:15:41.908Z,92.80
2022-12-29T02:16:41.930Z,92.89
2022-12-29T02:17:41.914Z,92.99
2022-12-29T02:18:41.887Z,92.56
2022-12-29T02:19:41.873Z,92.18
2022-12-29T02:20:41.867Z,91.56
2022-12-29T02:21:41.882Z,91.70
2022-12-29T02:22:41.874Z,91.85
2022-12-29T02:23:41.848Z,91.51
2022-12-29T02:24:41.843Z,91.70
2022-12-29T02:25:41.835Z,91.61
2022-12-29T02:26:41.846Z,91.47
2022-12-29T02:27:41.846Z,91.99
2022-12-29T02:28:41.822Z,91.32
2022-12-29T02:29:41.824Z,91.70
2022-12-29T02:30:41.807Z,91.22
2022-12-29T02:31:41.881Z,91.94
2022-12-29T02:32:41.793Z,91.51
2022-12-29T02:33:41.806Z,91.61
2022-12-29T02:34:41.783Z,91.42
2022-12-29T02:35:41.780Z,90.70
2022-12-29T02:36:41.771Z,90.33
2022-12-29T02:37:41.768Z,90.04
2022-12-29T02:38:41.758Z,90.08
2022-12-29T02:39:41.757Z,90.28
2022-12-29T02:40:41.742Z,89.80
2022-12-29T02:41:41.747Z,90.28
2022-12-29T02:42:41.748Z,89.80
2022-12-29T02:43:41.735Z,89.70
2022-12-29T02:44:41.720Z,89.70
2022-12-29T02:45:41.757Z,89.18
2022-12-29T02:46:41.720Z,89.32
2022-12-29T02:47:41.707Z,89.14
2022-12-29T02:48:41.694Z,89.32
2022-12-29T02:49:41.689Z,89.23
2022-12-29T02:50:41.689Z,89.32
2022-12-29T02:51:41.685Z,88.94
2022-12-29T02:52:41.670Z,89.04
2022-12-29T02:53:41.677Z,88.18
2022-12-29T02:54:41.662Z,88.75
2022-12-29T02:55:41.666Z,88.37
2022-12-29T02:56:41.656Z,87.99
2022-12-29T02:57:41.645Z,88.09
2022-12-29T02:58:41.647Z,88.09
2022-12-29T02:59:41.632Z,88.09
2022-12-29T03:00:41.620Z,88.37
2022-12-29T03:01:41.662Z,88.09
2022-12-29T03:02:41.783Z,87.90
2022-12-29T03:03:41.627Z,88.09
2022-12-29T03:04:41.607Z,87.80
2022-12-29T03:05:41.617Z,87.04
2022-12-29T03:06:41.585Z,87.23
2022-12-29T03:07:41.589Z,87.23
2022-12-29T03:08:41.591Z,87.52
2022-12-29T03:09:41.576Z,87.13
2022-12-29T03:10:41.584Z,87.23
2022-12-29T03:11:41.592Z,87.04
2022-12-29T03:12:41.559Z,87.13
2022-12-29T03:13:41.558Z,87.04
2022-12-29T03:14:41.535Z,87.42
2022-12-29T03:15:41.537Z,87.13
2022-12-29T03:16:41.557Z,87.13
2022-12-29T03:17:41.565Z,86.94
2022-12-29T03:18:41.538Z,87.08
2022-12-29T03:19:41.567Z,86.66
2022-12-29T03:20:41.505Z,86.47
2022-12-29T03:21:41.516Z,86.38
2022-12-29T03:22:41.518Z,86.76
2022-12-29T03:23:41.513Z,86.70
2022-12-29T03:24:41.491Z,86.80
2022-12-29T03:25:41.502Z,86.66
2022-12-29T03:26:41.471Z,86.66
2022-12-29T03:27:41.481Z,86.61
2022-12-29T03:28:41.469Z,86.70
2022-12-29T03:29:41.461Z,86.61
2022-12-29T03:30:41.509Z,86.57
2022-12-29T03:31:41.450Z,86.57
2022-12-29T03:32:41.441Z,86.51
2022-12-29T03:33:41.433Z,86.51
2022-12-29T03:34:41.457Z,86.70
2022-12-29T03:35:41.435Z,86.61
2022-12-29T03:36:41.430Z,86.61
2022-12-29T03:37:41.419Z,86.51
2022-12-29T03:38:41.420Z,86.70
2022-12-29T03:39:41.404Z,86.90
2022-12-29T03:40:41.392Z,86.80
2022-12-29T03:41:41.434Z,86.80
2022-12-29T03:42:41.388Z,86.90
2022-12-29T03:43:41.388Z,86.90
2022-12-29T03:44:41.394Z,86.70
2022-12-29T03:45:41.379Z,86.61
2022-12-29T03:46:41.428Z,86.80
2022-12-29T03:47:41.357Z,86.80
2022-12-29T03:48:41.361Z,86.61
2022-12-29T03:49:41.347Z,86.61
2022-12-29T03:50:41.349Z,86.51
2022-12-29T03:51:41.344Z,86.61
2022-12-29T03:52:41.332Z,86.61
2022-12-29T03:53:41.376Z,86.61
2022-12-29T03:54:41.323Z,86.51
2022-12-29T03:55:41.357Z,86.61
2022-12-29T03:56:41.313Z,86.70
2022-12-29T03:57:41.324Z,86.70
2022-12-29T03:58:41.298Z,86.80
2022-12-29T03:59:41.290Z,86.70
2022-12-29T04:00:41.295Z,86.80
2022-12-29T04:01:41.436Z,86.42
2022-12-29T04:02:41.524Z,86.70
2022-12-29T04:03:41.353Z,86.61
2022-12-29T04:04:41.294Z,86.61
2022-12-29T04:05:41.263Z,86.61
2022-12-29T04:06:41.250Z,86.70
2022-12-29T04:07:41.267Z,86.51
2022-12-29T04:08:41.271Z,86.51
2022-12-29T04:09:41.233Z,86.61
2022-12-29T04:10:41.260Z,86.42
2022-12-29T04:11:41.227Z,86.42
2022-12-29T04:12:41.218Z,86.32
2022-12-29T04:13:41.212Z,86.70
2022-12-29T04:14:41.209Z,86.90
2022-12-29T04:15:41.246Z,86.32
2022-12-29T04:16:41.228Z,86.70
2022-12-29T04:17:41.196Z,86.80
2022-12-29T04:18:41.198Z,86.51
2022-12-29T04:19:41.182Z,86.90
2022-12-29T04:20:41.179Z,86.90
2022-12-29T04:21:41.178Z,86.80
2022-12-29T04:22:41.169Z,86.80
2022-12-29T04:23:41.169Z,86.61
2022-12-29T04:24:41.171Z,86.80
2022-12-29T04:25:41.149Z,86.90
2022-12-29T04:26:41.157Z,86.32
2022-12-29T04:27:41.134Z,86.13
2022-12-29T04:28:41.137Z,86.42
2022-12-29T04:29:41.124Z,86.42
2022-12-29T04:30:41.128Z,86.22
2022-12-29T04:31:41.260Z,86.22
2022-12-29T04:32:41.113Z,86.32
2022-12-29T04:33:41.148Z,86.32
2022-12-29T04:34:41.100Z,86.32
2022-12-29T04:35:41.121Z,86.22
2022-12-29T04:36:41.086Z,86.42
2022-12-29T04:37:41.093Z,86.42
2022-12-29T04:38:41.079Z,86.04
2022-12-29T04:39:41.075Z,86.13
2022-12-29T04:40:41.060Z,86.32
2022-12-29T04:41:41.063Z,86.04
2022-12-29T04:42:41.060Z,86.22
2022-12-29T04:43:41.053Z,86.22
2022-12-29T04:44:45.041Z,86.13
2022-12-29T04:45:41.047Z,86.22
2022-12-29T04:46:41.081Z,86.32
2022-12-29T04:47:41.052Z,86.22
2022-12-29T04:48:41.099Z,86.32
2022-12-29T04:49:41.031Z,86.32
2022-12-29T04:50:41.014Z,86.32
2022-12-29T04:51:41.022Z,86.22
2022-12-29T04:52:40.994Z,85.94
2022-12-29T04:53:41.012Z,86.04
2022-12-29T04:54:41.011Z,86.04
2022-12-29T04:55:40.990Z,85.94
2022-12-29T04:56:40.992Z,85.94
2022-12-29T04:57:40.996Z,85.94
2022-12-29T04:58:40.968Z,85.85
2022-12-29T04:59:40.971Z,86.32
2022-12-29T05:00:40.955Z,85.85
2022-12-29T05:01:41.033Z,85.75
2022-12-29T05:02:41.163Z,86.61
2022-12-29T05:03:41.083Z,86.22
2022-12-29T05:04:40.938Z,86.22
2022-12-29T05:05:40.942Z,86.32
2022-12-29T05:06:40.928Z,86.32
2022-12-29T05:07:40.924Z,86.04
2022-12-29T05:08:40.918Z,86.04
2022-12-29T05:09:40.912Z,86.61
2022-12-29T05:10:40.941Z,86.61
2022-12-29T05:11:40.928Z,86.61
2022-12-29T05:12:40.936Z,86.32
2022-12-29T05:13:40.900Z,86.04
2022-12-29T05:14:40.910Z,86.13
2022-12-29T05:15:40.943Z,86.13
2022-12-29T05:16:40.942Z,86.61
2022-12-29T05:17:40.868Z,86.80
2022-12-29T05:18:40.864Z,86.80
2022-12-29T05:19:40.862Z,86.80
2022-12-29T05:20:40.846Z,86.80
2022-12-29T05:21:40.866Z,86.80
2022-12-29T05:22:40.847Z,86.80
2022-12-29T05:23:40.847Z,86.61
2022-12-29T05:24:40.848Z,86.75
2022-12-29T05:25:40.837Z,86.32
2022-12-29T05:26:40.814Z,86.55
2022-12-29T05:27:40.823Z,86.65
2022-12-29T05:28:40.835Z,86.55
2022-12-29T05:29:40.810Z,86.55
2022-12-29T05:30:40.828Z,86.65
2022-12-29T05:31:40.850Z,86.80
2022-12-29T05:32:40.786Z,86.55
2022-12-29T05:33:40.789Z,87.13
2022-12-29T05:34:40.793Z,86.84
2022-12-29T05:35:40.769Z,87.32
2022-12-29T05:36:40.769Z,87.03
2022-12-29T05:37:40.755Z,87.18
2022-12-29T05:38:40.779Z,87.27
2022-12-29T05:39:40.768Z,87.08
2022-12-29T05:40:40.742Z,87.23
2022-12-29T05:41:40.742Z,86.94
2022-12-29T05:42:40.750Z,87.13
2022-12-29T05:43:40.774Z,87.13
2022-12-29T05:44:40.737Z,87.32
2022-12-29T05:45:40.725Z,86.94
2022-12-29T05:46:40.826Z,87.03
2022-12-29T05:47:40.720Z,87.03
2022-12-29T05:48:40.722Z,87.23
2022-12-29T05:49:40.697Z,87.13
2022-12-29T05:50:40.690Z,87.03
2022-12-29T05:51:40.697Z,87.13
2022-12-29T05:52:40.695Z,86.94
2022-12-29T05:53:40.695Z,87.03
2022-12-29T05:54:40.669Z,87.23
2022-12-29T05:55:46.596Z,86.94
2022-12-29T05:56:40.678Z,87.03
2022-12-29T05:57:40.672Z,86.94
2022-12-29T05:58:40.669Z,87.13
2022-12-29T05:59:47.830Z,87.13
2022-12-29T06:01:44.813Z,87.03
2022-12-29T06:02:44.918Z,86.84
2022-12-29T06:04:48.634Z,87.13
2022-12-29T06:05:48.610Z,87.13
2022-12-29T06:07:52.635Z,87.32
2022-12-29T06:08:52.594Z,86.94
2022-12-29T06:10:46.037Z,86.94
2022-12-29T06:11:46.009Z,86.94
2022-12-29T06:13:50.037Z,87.03
2022-12-29T06:14:49.999Z,86.55
2022-12-29T06:16:43.244Z,86.55
2022-12-29T06:17:43.090Z,86.46
2022-12-29T06:19:47.069Z,86.65
2022-12-29T06:20:47.067Z,86.46
2022-12-29T06:22:51.052Z,86.36
2022-12-29T06:23:51.045Z,86.36
2022-12-29T06:25:55.089Z,86.55
2022-12-29T06:26:55.037Z,86.60
2022-12-29T06:28:59.059Z,86.65
2022-12-29T06:29:59.027Z,86.94
2022-12-29T06:32:03.039Z,86.94
2022-12-29T06:33:02.985Z,86.75
2022-12-29T06:35:07.472Z,86.94
2022-12-29T06:36:06.958Z,86.84
2022-12-29T06:38:10.975Z,86.84
2022-12-29T06:39:10.948Z,86.84
2022-12-29T06:41:14.942Z,86.88
2022-12-29T06:42:14.919Z,86.60
2022-12-29T06:44:18.936Z,86.51
2022-12-29T06:45:18.899Z,86.98
2022-12-29T06:47:22.868Z,86.79
2022-12-29T06:48:22.857Z,86.69
2022-12-29T06:50:15.773Z,86.51
2022-12-29T06:51:15.754Z,86.03
2022-12-29T06:53:19.729Z,86.41
2022-12-29T06:54:19.719Z,86.12
2022-12-29T06:56:23.708Z,86.69
2022-12-29T06:57:23.685Z,86.41
2022-12-29T06:59:28.170Z,86.41
2022-12-29T07:00:28.160Z,86.12
2022-12-29T07:01:28.311Z,86.51
2022-12-29T07:02:28.386Z,86.60
2022-12-29T07:03:28.228Z,86.88
2022-12-29T07:04:28.155Z,86.98
2022-12-29T07:05:28.128Z,86.88
2022-12-29T07:06:28.135Z,86.88
2022-12-29T07:07:28.122Z,86.88
2022-12-29T07:08:28.119Z,86.69
2022-12-29T07:09:28.118Z,86.41
2022-12-29T07:10:28.116Z,86.60
2022-12-29T07:11:28.096Z,86.69
2022-12-29T07:12:28.104Z,86.41
2022-12-29T07:13:28.088Z,86.79
2022-12-29T07:14:28.087Z,86.98
2022-12-29T07:15:28.075Z,86.98
2022-12-29T07:16:28.140Z,86.88
2022-12-29T07:17:28.065Z,86.79
2022-12-29T07:18:28.118Z,86.69
2022-12-29T07:19:28.061Z,86.60
2022-12-29T07:20:28.077Z,86.60
2022-12-29T07:21:28.050Z,86.55
2022-12-29T07:22:28.052Z,86.88
2022-12-29T07:23:28.046Z,86.60
2022-12-29T07:24:28.036Z,87.32
2022-12-29T07:25:28.030Z,86.84
2022-12-29T07:26:32.894Z,87.13
2022-12-29T07:27:28.012Z,87.03
2022-12-29T07:28:28.012Z,86.65
2022-12-29T07:29:28.003Z,87.23
2022-12-29T07:30:28.103Z,86.94
2022-12-29T07:31:28.075Z,87.27
2022-12-29T07:32:28.000Z,87.51
2022-12-29T07:33:27.999Z,87.17
2022-12-29T07:34:27.998Z,87.23
2022-12-29T07:35:27.976Z,87.17
2022-12-29T07:36:33.993Z,87.36
2022-12-29T07:37:27.971Z,87.36
2022-12-29T07:38:27.960Z,87.17
2022-12-29T07:39:27.960Z,87.27
2022-12-29T07:40:28.016Z,87.36
2022-12-29T07:41:27.952Z,87.27
2022-12-29T07:42:27.950Z,87.27
2022-12-29T07:43:27.960Z,87.07
2022-12-29T07:44:27.939Z,87.17
2022-12-29T07:45:27.931Z,87.46
2022-12-29T07:46:55.133Z,87.17
2022-12-29T07:47:27.921Z,87.46
2022-12-29T07:48:27.908Z,87.27
2022-12-29T07:49:27.910Z,87.46
2022-12-29T07:50:27.909Z,87.65
2022-12-29T07:51:27.911Z,87.65
2022-12-29T07:52:27.890Z,87.55
2022-12-29T07:53:27.888Z,87.46
2022-12-29T07:54:27.880Z,87.36
2022-12-29T07:55:27.876Z,87.36
2022-12-29T07:56:27.869Z,87.27
2022-12-29T07:57:31.782Z,87.46
2022-12-29T07:58:27.859Z,87.55
2022-12-29T07:59:27.865Z,87.27
2022-12-29T08:00:27.858Z,87.17
2022-12-29T08:01:27.935Z,87.27
2022-12-29T08:02:28.110Z,87.17
2022-12-29T08:03:27.887Z,87.17
2022-12-29T08:04:27.840Z,87.17
2022-12-29T08:05:27.833Z,87.36
2022-12-29T08:06:27.829Z,87.65
2022-12-29T08:07:27.830Z,87.55
2022-12-29T08:08:27.821Z,87.07
2022-12-29T08:09:27.881Z,87.27
2022-12-29T08:10:27.904Z,87.36
2022-12-29T08:11:27.807Z,87.65
2022-12-29T08:12:27.803Z,87.17
2022-12-29T08:13:27.799Z,86.98
2022-12-29T08:14:27.788Z,87.36
2022-12-29T08:15:32.323Z,86.88
2022-12-29T08:16:27.808Z,87.27
2022-12-29T08:17:27.777Z,87.17
2022-12-29T08:18:27.761Z,86.98
2022-12-29T08:19:27.771Z,87.17
2022-12-29T08:20:27.776Z,86.98
2022-12-29T08:21:27.775Z,87.07
2022-12-29T08:22:27.755Z,86.98
2022-12-29T08:23:27.745Z,87.17
2022-12-29T08:24:27.731Z,86.98
2022-12-29T08:25:27.763Z,86.98
2022-12-29T08:26:27.737Z,87.17
2022-12-29T08:27:27.733Z,87.07
2022-12-29T08:28:27.736Z,86.98
2022-12-29T08:29:27.733Z,87.07
2022-12-29T08:30:27.726Z,86.98
2022-12-29T08:31:27.863Z,87.17
2022-12-29T08:32:27.725Z,87.07
2022-12-29T08:33:27.701Z,87.17
2022-12-29T08:34:27.706Z,86.88
2022-12-29T08:35:27.687Z,86.88
2022-12-29T08:36:27.688Z,87.27
2022-12-29T08:37:31.217Z,87.27
2022-12-29T08:38:27.775Z,87.17
2022-12-29T08:39:27.700Z,87.17
2022-12-29T08:40:27.677Z,87.27
2022-12-29T08:41:27.658Z,87.27
2022-12-29T08:42:27.662Z,86.88
2022-12-29T08:43:27.652Z,86.98
2022-12-29T08:44:27.654Z,87.27
2022-12-29T08:45:27.710Z,86.88
2022-12-29T08:46:27.688Z,87.36
2022-12-29T08:47:27.637Z,86.88
2022-12-29T08:48:27.634Z,86.69
2022-12-29T08:49:27.666Z,86.60
2022-12-29T08:50:27.620Z,86.60
2022-12-29T08:51:27.635Z,86.88
2022-12-29T08:52:27.623Z,86.88
2022-12-29T08:53:27.618Z,86.88
2022-12-29T08:54:27.610Z,86.69
2022-12-29T08:55:27.600Z,86.51
2022-12-29T08:56:27.659Z,86.60
2022-12-29T08:57:27.589Z,86.88
2022-12-29T08:58:27.584Z,86.16
2022-12-29T08:59:27.615Z,85.69
2022-12-29T09:00:27.575Z,85.84
2022-12-29T09:01:27.689Z,85.88
2022-12-29T09:02:27.768Z,85.88
2022-12-29T09:04:03.745Z,85.88
2022-12-29T09:04:27.736Z,85.41
2022-12-29T09:05:27.551Z,84.92
2022-12-29T09:06:27.594Z,84.74
2022-12-29T09:07:27.564Z,84.36
2022-12-29T09:08:27.549Z,84.55
2022-12-29T09:09:27.589Z,84.16
2022-12-29T09:10:27.576Z,84.16
2022-12-29T09:11:27.540Z,84.55
2022-12-29T09:12:32.935Z,84.26
2022-12-29T09:13:27.560Z,84.64
2022-12-29T09:14:27.522Z,84.45
2022-12-29T09:15:27.545Z,84.45
2022-12-29T09:16:27.588Z,84.26
2022-12-29T09:17:27.549Z,84.36
2022-12-29T09:18:27.515Z,85.06
2022-12-29T09:19:27.503Z,84.45
2022-12-29T09:20:27.564Z,84.55
2022-12-29T09:21:27.500Z,84.59
2022-12-29T09:22:27.494Z,84.01
2022-12-29T09:23:27.538Z,83.73
2022-12-29T09:24:27.509Z,83.29
2022-12-29T09:25:27.486Z,81.96
2022-12-29T09:26:27.499Z,81.10
2022-12-29T09:27:27.495Z,80.91
2022-12-29T09:28:27.489Z,80.33
2022-12-29T09:29:27.480Z,79.77
2022-12-29T09:30:27.481Z,79.57
2022-12-29T09:31:27.535Z,79.48
2022-12-29T09:32:32.660Z,79.57
2022-12-29T09:33:27.469Z,80.15
2022-12-29T09:34:27.525Z,79.67
2022-12-29T09:35:27.468Z,80.05
2022-12-29T09:36:27.466Z,80.24
2022-12-29T09:37:27.476Z,79.28
2022-12-29T09:38:27.483Z,80.05
2022-12-29T09:39:27.447Z,80.53
2022-12-29T09:40:27.481Z,81.10
2022-12-29T09:41:27.483Z,81.10
2022-12-29T09:42:27.471Z,81.25
2022-12-29T09:43:27.447Z,81.82
2022-12-29T09:44:27.445Z,82.11
2022-12-29T09:45:27.445Z,82.49
2022-12-29T09:46:27.504Z,82.68
2022-12-29T09:47:27.459Z,82.40
2022-12-29T09:48:27.439Z,83.25
2022-12-29T09:49:27.473Z,83.16
2022-12-29T09:50:27.428Z,83.06
2022-12-29T09:51:27.465Z,82.78
2022-12-29T09:52:27.468Z,83.16
2022-12-29T09:53:27.443Z,83.16
2022-12-29T09:54:27.419Z,83.16
2022-12-29T09:55:27.454Z,82.87
2022-12-29T09:56:27.414Z,83.06
2022-12-29T09:57:27.413Z,83.25
2022-12-29T09:58:27.414Z,82.97
2022-12-29T09:59:27.411Z,82.40
2022-12-29T10:00:27.404Z,83.06
2022-12-29T10:01:27.539Z,82.97
2022-12-29T10:02:27.555Z,82.97
2022-12-29T10:03:27.514Z,83.16
2022-12-29T10:04:27.396Z,82.59
2022-12-29T10:05:27.448Z,82.68
2022-12-29T10:06:27.386Z,83.06
2022-12-29T10:07:29.962Z,83.44
2022-12-29T10:08:27.385Z,83.73
2022-12-29T10:09:27.422Z,83.83
2022-12-29T10:10:27.370Z,83.73
2022-12-29T10:11:27.373Z,83.44
2022-12-29T10:12:27.356Z,83.83
2022-12-29T10:13:27.395Z,83.73
2022-12-29T10:14:27.350Z,83.64
2022-12-29T10:15:27.367Z,83.73
2022-12-29T10:16:27.419Z,84.01
2022-12-29T10:17:27.346Z,84.40
2022-12-29T10:18:27.328Z,84.11
2022-12-29T10:19:32.973Z,83.92
2022-12-29T10:20:27.328Z,84.20
2022-12-29T10:21:27.355Z,84.11
2022-12-29T10:22:27.348Z,83.83
2022-12-29T10:23:27.334Z,84.01
2022-12-29T10:24:27.367Z,84.11
2022-12-29T10:25:31.221Z,84.11
2022-12-29T10:26:27.353Z,84.11
2022-12-29T10:27:27.362Z,84.11
2022-12-29T10:28:27.318Z,84.01
2022-12-29T10:29:27.310Z,84.01
2022-12-29T10:30:27.316Z,84.11
2022-12-29T10:31:27.346Z,84.20
2022-12-29T10:32:27.316Z,83.83
2022-12-29T10:33:27.325Z,83.54
2022-12-29T10:34:27.322Z,83.44
2022-12-29T10:35:27.279Z,83.44
2022-12-29T10:36:27.276Z,83.44
2022-12-29T10:37:33.456Z,83.73
2022-12-29T10:38:27.337Z,83.92
2022-12-29T10:39:27.272Z,83.83
2022-12-29T10:40:27.272Z,83.83
2022-12-29T10:41:27.274Z,83.64
2022-12-29T10:42:27.256Z,83.83
2022-12-29T10:43:27.269Z,83.44
2022-12-29T10:44:27.280Z,83.67
2022-12-29T10:45:27.307Z,83.29
2022-12-29T10:46:27.314Z,83.25
2022-12-29T10:47:27.269Z,83.67
2022-12-29T10:48:31.814Z,83.67
2022-12-29T10:49:27.239Z,83.06
2022-12-29T10:50:27.229Z,82.82
2022-12-29T10:51:27.236Z,82.78
2022-12-29T10:52:27.240Z,83.20
2022-12-29T10:53:27.230Z,82.78
2022-12-29T10:54:27.242Z,83.11
2022-12-29T10:55:27.207Z,82.91
2022-12-29T10:56:27.206Z,82.78
2022-12-29T10:57:27.254Z,83.01
2022-12-29T10:58:27.204Z,82.53
2022-12-29T10:59:27.197Z,82.63
2022-12-29T11:00:27.192Z,83.11
2022-12-29T11:01:27.284Z,82.91
2022-12-29T11:02:27.457Z,82.87
2022-12-29T11:03:27.266Z,82.97
2022-12-29T11:04:27.235Z,82.78
2022-12-29T11:05:27.187Z,82.59
2022-12-29T11:06:27.165Z,82.40
2022-12-29T11:07:27.779Z,82.72
2022-12-29T11:08:27.183Z,82.59
2022-12-29T11:09:41.405Z,82.78
2022-12-29T11:10:27.152Z,83.01
2022-12-29T11:11:27.199Z,82.91
2022-12-29T11:12:27.155Z,82.72
2022-12-29T11:13:27.143Z,82.82
2022-12-29T11:14:27.136Z,82.72
2022-12-29T11:15:27.143Z,83.20
2022-12-29T11:16:27.151Z,82.78
2022-12-29T11:17:27.129Z,83.73
2022-12-29T11:18:27.182Z,82.78
2022-12-29T11:19:27.178Z,82.91
2022-12-29T11:20:27.167Z,83.29
2022-12-29T11:21:27.131Z,83.54
2022-12-29T11:22:27.131Z,83.87
2022-12-29T11:23:27.148Z,83.92
2022-12-29T11:24:27.155Z,84.25
2022-12-29T11:25:27.161Z,84.06
2022-12-29T11:26:33.628Z,84.20
2022-12-29T11:27:27.109Z,84.53
2022-12-29T11:28:27.083Z,84.92
2022-12-29T11:29:27.105Z,85.06
2022-12-29T11:30:27.085Z,85.35
2022-12-29T11:31:27.120Z,85.16
2022-12-29T11:32:29.162Z,85.45
2022-12-29T11:33:27.083Z,85.25
2022-12-29T11:34:27.104Z,85.93
2022-12-29T11:35:27.065Z,86.49
2022-12-29T11:36:27.060Z,86.49
2022-12-29T11:37:27.044Z,86.88
2022-12-29T11:38:27.055Z,86.78
2022-12-29T11:39:27.045Z,87.07
2022-12-29T11:40:27.042Z,87.64
2022-12-29T11:41:27.078Z,87.26
2022-12-29T11:42:27.040Z,87.83
2022-12-29T11:43:27.137Z,88.12
2022-12-29T11:44:27.036Z,88.50
2022-12-29T11:45:27.023Z,88.59
2022-12-29T11:46:27.139Z,88.78
2022-12-29T11:47:27.009Z,88.59
2022-12-29T11:48:27.039Z,89.36
2022-12-29T11:49:27.018Z,88.98
2022-12-29T11:50:27.001Z,88.98
2022-12-29T11:51:27.034Z,88.78
2022-12-29T11:52:26.990Z,89.64
2022-12-29T11:53:27.015Z,89.36
2022-12-29T11:54:26.991Z,89.45
2022-12-29T11:55:27.012Z,89.54
2022-12-29T11:56:26.986Z,89.45
2022-12-29T11:57:26.975Z,89.17
2022-12-29T11:58:26.979Z,89.54
2022-12-29T11:59:29.721Z,89.45
2022-12-29T12:00:26.964Z,89.74
2022-12-29T12:01:27.005Z,89.79
2022-12-29T12:02:27.037Z,90.17
2022-12-29T12:03:27.119Z,90.36
2022-12-29T12:04:26.987Z,90.64
2022-12-29T12:05:26.930Z,91.07
2022-12-29T12:06:26.934Z,91.31
2022-12-29T12:07:26.924Z,91.79
2022-12-29T12:08:26.978Z,91.79
2022-12-29T12:09:26.926Z,92.46
2022-12-29T12:10:26.966Z,93.32
2022-12-29T12:11:26.908Z,93.32
2022-12-29T12:12:26.908Z,93.41
2022-12-29T12:13:26.901Z,94.27
2022-12-29T12:14:26.906Z,94.84
2022-12-29T12:15:26.906Z,94.65
2022-12-29T12:16:26.960Z,95.36
2022-12-29T12:17:26.884Z,94.84
2022-12-29T12:18:26.904Z,95.27
2022-12-29T12:19:26.883Z,95.75
2022-12-29T12:20:26.876Z,96.03
2022-12-29T12:21:26.862Z,96.89
2022-12-29T12:22:26.875Z,96.89
2022-12-29T12:23:26.865Z,97.46
2022-12-29T12:24:26.865Z,97.84
2022-12-29T12:25:26.885Z,97.46
2022-12-29T12:26:26.863Z,98.22
2022-12-29T12:27:26.836Z,97.84
2022-12-29T12:28:29.393Z,98.70
2022-12-29T12:29:26.850Z,98.89
2022-12-29T12:30:26.830Z,99.18
2022-12-29T12:31:26.895Z,99.46
2022-12-29T12:32:26.827Z,99.99
2022-12-29T12:33:26.827Z,99.99
2022-12-29T12:34:26.833Z,99.99
2022-12-29T12:35:26.805Z,99.99
2022-12-29T12:36:26.807Z,99.99
2022-12-29T12:37:26.795Z,99.99
2022-12-29T12:38:26.819Z,99.99
2022-12-29T12:39:26.803Z,99.99
2022-12-29T12:40:26.787Z,99.99
2022-12-29T12:41:26.797Z,99.99
2022-12-29T12:42:26.769Z,99.99
2022-12-29T12:43:26.771Z,99.99
2022-12-29T12:44:26.787Z,99.84
2022-12-29T12:45:26.767Z,99.99
2022-12-29T12:46:26.802Z,99.99
2022-12-29T12:47:26.804Z,99.99
2022-12-29T12:48:26.741Z,99.37
2022-12-29T12:49:26.742Z,98.32
2022-12-29T12:50:26.822Z,98.13
2022-12-29T12:51:26.730Z,98.41
2022-12-29T12:52:26.757Z,98.70
2022-12-29T12:53:26.718Z,98.41
2022-12-29T12:54:26.724Z,98.41
2022-12-29T12:55:26.711Z,98.60
2022-12-29T12:56:26.719Z,99.37
2022-12-29T12:57:26.722Z,99.08
2022-12-29T12:58:26.695Z,99.37
2022-12-29T12:59:26.701Z,99.55
2022-12-29T13:00:26.703Z,99.99
2022-12-29T13:01:26.796Z,99.99
2022-12-29T13:02:26.947Z,99.99
2022-12-29T13:03:26.713Z,99.99
2022-12-29T13:04:26.674Z,99.99
2022-12-29T13:05:27.353Z,99.99
2022-12-29T13:06:26.652Z,99.99
2022-12-29T13:07:26.651Z,99.99
2022-12-29T13:08:26.657Z,99.99
2022-12-29T13:09:26.655Z,99.99
2022-12-29T13:10:26.646Z,99.99
2022-12-29T13:11:26.634Z,99.99
2022-12-29T13:12:26.635Z,99.99
2022-12-29T13:13:26.664Z,99.99
2022-12-29T13:14:26.611Z,99.99
2022-12-29T13:15:26.612Z,99.99
2022-12-29T13:16:26.662Z,99.99